createdAt,value
2022-08-11T00:01:54.624Z,28.34
2022-08-11T00:04:27.697Z,28.30
2022-08-11T00:06:55.766Z,28.29
2022-08-11T00:09:38.848Z,28.30
2022-08-11T00:12:15.678Z,28.17
2022-08-11T00:14:44.432Z,28.25
2022-08-11T00:17:15.826Z,28.15
2022-08-11T00:20:12.825Z,28.22
2022-08-11T00:22:40.096Z,28.06
2022-08-11T00:25:19.934Z,27.88
2022-08-11T00:27:48.926Z,27.95
2022-08-11T00:30:17.269Z,27.95
2022-08-11T00:32:55.984Z,27.53
2022-08-11T00:35:55.938Z,27.78
2022-08-11T00:38:29.104Z,27.77
2022-08-11T00:41:25.418Z,27.56
2022-08-11T00:44:16.116Z,27.38
2022-08-11T00:47:04.465Z,27.23
2022-08-11T00:49:51.867Z,27.11
2022-08-11T00:52:54.868Z,27.05
2022-08-11T00:55:55.533Z,26.94
2022-08-11T00:58:48.339Z,26.81
2022-08-11T01:01:17.983Z,26.76
2022-08-11T01:04:38.052Z,26.71
2022-08-11T01:08:02.129Z,26.50
2022-08-11T01:11:07.960Z,26.45
2022-08-11T01:14:15.305Z,26.45
2022-08-11T01:17:19.709Z,26.28
2022-08-11T01:20:45.727Z,26.33
2022-08-11T01:23:59.737Z,26.09
2022-08-11T01:27:19.787Z,25.92
2022-08-11T01:30:54.155Z,25.94
2022-08-11T01:34:01.758Z,25.81
2022-08-11T01:37:09.340Z,25.81
2022-08-11T01:39:51.358Z,25.73
2022-08-11T01:43:36.035Z,25.73
2022-08-11T01:46:18.200Z,25.73
2022-08-11T01:49:29.067Z,25.76
2022-08-11T01:52:19.404Z,25.65
2022-08-11T01:55:32.227Z,25.68
2022-08-11T01:58:40.751Z,25.72
2022-08-11T02:01:36.201Z,25.64
2022-08-11T02:04:47.028Z,25.65
2022-08-11T02:07:27.425Z,25.56
2022-08-11T02:10:00.685Z,25.47
2022-08-11T02:12:38.005Z,25.43
2022-08-11T02:15:36.393Z,25.42
2022-08-11T02:18:20.473Z,25.50
2022-08-11T02:21:15.869Z,25.46
2022-08-11T02:24:08.170Z,25.35
2022-08-11T02:27:02.183Z,25.32
2022-08-11T02:30:07.326Z,25.32
2022-08-11T02:33:07.429Z,25.27
2022-08-11T02:36:08.348Z,25.29
2022-08-11T02:39:03.065Z,25.23
2022-08-11T02:42:00.474Z,25.27
2022-08-11T02:44:42.367Z,25.21
2022-08-11T02:47:22.720Z,25.20
2022-08-11T02:50:06.855Z,25.18
2022-08-11T02:52:53.301Z,24.96
2022-08-11T02:55:56.171Z,25.11
2022-08-11T02:58:33.237Z,25.02
2022-08-11T03:01:39.092Z,24.88
2022-08-11T03:04:55.365Z,24.96
2022-08-11T03:07:29.828Z,24.82
2022-08-11T03:10:21.452Z,24.77
2022-08-11T03:13:26.915Z,24.58
2022-08-11T03:16:45.678Z,24.57
2022-08-11T03:19:37.141Z,24.54
2022-08-11T03:22:19.234Z,24.55
2022-08-11T03:24:54.694Z,24.53
2022-08-11T03:27:27.282Z,24.58
2022-08-11T03:30:14.708Z,24.40
2022-08-11T03:33:41.248Z,24.28
2022-08-11T03:37:16.030Z,24.08
2022-08-11T03:39:57.763Z,24.31
2022-08-11T03:42:41.860Z,24.35
2022-08-11T03:45:27.152Z,24.38
2022-08-11T03:48:24.988Z,24.09
2022-08-11T03:51:51.658Z,24.18
2022-08-11T03:54:54.442Z,23.90
2022-08-11T03:57:55.588Z,24.02
2022-08-11T04:01:12.579Z,23.79
2022-08-11T04:04:26.087Z,23.67
2022-08-11T04:07:38.929Z,23.69
2022-08-11T04:10:29.792Z,23.46
2022-08-11T04:13:20.768Z,23.41
2022-08-11T04:16:30.124Z,23.32
2022-08-11T04:19:53.786Z,23.53
2022-08-11T04:22:38.694Z,23.40
2022-08-11T04:25:34.116Z,23.60
2022-08-11T04:29:09.523Z,23.43
2022-08-11T04:31:59.391Z,23.38
2022-08-11T04:35:17.725Z,23.36
2022-08-11T04:38:27.114Z,23.47
2022-08-11T04:41:31.963Z,23.43
2022-08-11T04:45:03.277Z,23.31
2022-08-11T04:48:23.400Z,23.12
2022-08-11T04:51:50.900Z,23.20
2022-08-11T04:55:10.145Z,23.16
2022-08-11T04:58:20.904Z,23.20
2022-08-11T05:01:42.303Z,23.14
2022-08-11T05:05:13.242Z,23.24
2022-08-11T05:08:00.779Z,23.27
2022-08-11T05:10:58.573Z,23.05
2022-08-11T05:13:52.131Z,23.12
2022-08-11T05:16:47.082Z,23.29
2022-08-11T05:19:39.133Z,23.26
2022-08-11T05:22:32.016Z,23.23
2022-08-11T05:26:43.644Z,23.21
2022-08-11T05:28:53.632Z,23.21
2022-08-11T05:31:50.632Z,23.23
2022-08-11T05:34:51.408Z,23.37
2022-08-11T05:37:30.283Z,23.35
2022-08-11T05:40:32.029Z,23.47
2022-08-11T05:43:22.070Z,23.45
2022-08-11T05:46:21.329Z,23.42
2022-08-11T05:49:08.919Z,23.47
2022-08-11T05:52:05.424Z,23.56
2022-08-11T05:55:06.086Z,23.60
2022-08-11T05:57:50.553Z,23.53
2022-08-11T06:00:20.257Z,23.49
2022-08-11T06:02:55.250Z,23.50
2022-08-11T06:05:23.265Z,23.71
2022-08-11T06:07:57.018Z,23.79
2022-08-11T06:10:34.463Z,23.76
2022-08-11T06:13:04.926Z,23.95
2022-08-11T06:15:43.545Z,24.08
2022-08-11T06:18:13.717Z,24.10
2022-08-11T06:20:55.012Z,24.16
2022-08-11T06:23:25.927Z,24.37
2022-08-11T06:25:56.159Z,24.54
2022-08-11T06:28:35.784Z,24.69
2022-08-11T06:31:13.182Z,24.77
2022-08-11T06:33:51.308Z,24.82
2022-08-11T06:36:38.953Z,24.89
2022-08-11T06:39:42.144Z,24.95
2022-08-11T06:42:28.677Z,25.06
2022-08-11T06:45:05.187Z,25.21
2022-08-11T06:47:32.764Z,25.33
2022-08-11T06:50:19.482Z,25.43
2022-08-11T06:52:48.150Z,25.53
2022-08-11T06:55:56.246Z,25.61
2022-08-11T06:58:53.191Z,25.73
2022-08-11T07:02:06.787Z,25.82
2022-08-11T07:05:01.314Z,25.94
2022-08-11T07:08:43.179Z,26.06
2022-08-11T07:12:18.849Z,26.20
2022-08-11T07:15:14.078Z,26.34
2022-08-11T07:18:13.926Z,26.44
2022-08-11T07:21:02.277Z,26.59
2022-08-11T07:23:55.205Z,26.74
2022-08-11T07:26:45.850Z,26.88
2022-08-11T07:29:14.976Z,27.00
2022-08-11T07:31:50.068Z,27.13
2022-08-11T07:34:28.194Z,27.27
2022-08-11T07:36:59.618Z,27.37
2022-08-11T07:39:31.915Z,27.50
2022-08-11T07:42:06.124Z,27.61
2022-08-11T07:44:54.397Z,27.77
2022-08-11T07:47:41.741Z,27.87
2022-08-11T07:50:29.196Z,27.98
2022-08-11T07:53:04.098Z,28.23
2022-08-11T07:55:50.174Z,28.44
2022-08-11T07:58:45.495Z,28.37
2022-08-11T08:01:45.741Z,28.76
2022-08-11T08:04:34.831Z,28.64
2022-08-11T08:07:24.417Z,28.65
2022-08-11T08:10:14.220Z,28.72
2022-08-11T08:13:02.525Z,28.93
2022-08-11T08:15:50.019Z,29.16
2022-08-11T08:18:26.656Z,29.26
2022-08-11T08:21:11.835Z,29.48
2022-08-11T08:23:46.703Z,29.51
2022-08-11T08:26:34.796Z,29.62
2022-08-11T08:29:25.016Z,29.58
2022-08-11T08:31:53.600Z,29.79
2022-08-11T08:34:21.714Z,29.75
2022-08-11T08:36:51.829Z,29.81
2022-08-11T08:39:22.831Z,29.99
2022-08-11T08:41:55.954Z,30.17
2022-08-11T08:44:42.076Z,30.22
2022-08-11T08:47:38.761Z,30.24
2022-08-11T08:50:10.625Z,30.35
2022-08-11T08:52:53.521Z,30.58
2022-08-11T08:55:22.152Z,30.65
2022-08-11T08:57:54.212Z,30.80
2022-08-11T09:00:23.626Z,30.93
2022-08-11T09:02:52.240Z,31.15
2022-08-11T09:05:21.113Z,31.27
2022-08-11T09:07:54.475Z,31.16
2022-08-11T09:10:22.726Z,31.11
2022-08-11T09:12:51.977Z,31.30
2022-08-11T09:15:20.694Z,31.56
2022-08-11T09:17:53.731Z,31.32
2022-08-11T09:20:29.118Z,31.58
2022-08-11T09:26:30.923Z,31.45
2022-08-11T09:28:59.557Z,31.68
2022-08-11T09:31:29.501Z,31.82
2022-08-11T09:33:56.661Z,31.87
2022-08-11T09:36:42.547Z,31.83
2022-08-11T09:39:31.617Z,32.06
2022-08-11T09:42:04.435Z,32.28
2022-08-11T09:44:52.225Z,32.35
2022-08-11T09:47:33.964Z,32.17
2022-08-11T09:50:02.763Z,32.04
2022-08-11T09:52:35.918Z,32.30
2022-08-11T09:55:10.883Z,32.30
2022-08-11T09:58:04.220Z,32.20
2022-08-11T10:00:40.164Z,32.37
2022-08-11T10:03:16.826Z,32.46
2022-08-11T10:06:10.704Z,32.65
2022-08-11T10:08:42.310Z,32.73
2022-08-11T10:11:14.649Z,33.03
2022-08-11T10:14:31.368Z,32.88
2022-08-11T10:16:55.178Z,32.99
2022-08-11T10:19:22.967Z,33.14
2022-08-11T10:22:13.412Z,33.17
2022-08-11T10:25:03.418Z,33.20
2022-08-11T10:28:16.644Z,33.35
2022-08-11T10:30:38.120Z,33.59
2022-08-11T10:33:36.784Z,33.50
2022-08-11T10:36:16.484Z,33.56
2022-08-11T10:38:50.258Z,33.71
2022-08-11T10:41:37.370Z,33.48
2022-08-11T10:44:24.720Z,33.69
2022-08-11T10:47:11.466Z,33.56
2022-08-11T10:49:38.673Z,33.60
2022-08-11T10:52:24.698Z,33.80
2022-08-11T10:55:11.226Z,34.05
2022-08-11T10:58:04.721Z,33.92
2022-08-11T11:00:34.935Z,33.93
2022-08-11T11:03:16.867Z,34.42
2022-08-11T11:06:27.608Z,34.10
2022-08-11T11:08:55.529Z,34.29
2022-08-11T11:11:52.124Z,34.29
2022-08-11T11:14:46.024Z,34.35
2022-08-11T11:17:47.585Z,34.41
2022-08-11T11:20:35.767Z,34.42
2022-08-11T11:23:20.729Z,34.50
2022-08-11T11:26:07.137Z,34.60
2022-08-11T11:28:59.574Z,34.83
2022-08-11T11:32:06.361Z,34.85
2022-08-11T11:34:52.930Z,34.83
2022-08-11T11:37:23.611Z,34.98
2022-08-11T11:39:52.001Z,34.96
2022-08-11T11:42:21.364Z,35.09
2022-08-11T11:44:49.057Z,35.04
2022-08-11T11:47:21.808Z,35.04
2022-08-11T11:49:50.129Z,35.03
2022-08-11T11:52:21.009Z,35.11
2022-08-11T11:54:51.970Z,35.37
2022-08-11T11:57:40.525Z,35.29
2022-08-11T12:00:33.732Z,35.26
2022-08-11T12:03:05.054Z,35.25
2022-08-11T12:05:38.043Z,35.23
2022-08-11T12:08:18.609Z,35.32
2022-08-11T12:11:19.058Z,35.36
2022-08-11T12:13:50.319Z,35.46
2022-08-11T12:16:35.737Z,35.54
2022-08-11T12:19:16.858Z,35.59
2022-08-11T12:22:04.305Z,35.66
2022-08-11T12:24:53.612Z,35.70
2022-08-11T12:27:25.211Z,35.71
2022-08-11T12:30:09.127Z,35.76
2022-08-11T12:32:39.473Z,35.87
2022-08-11T12:35:08.233Z,35.80
2022-08-11T12:38:03.699Z,35.78
2022-08-11T12:44:06.696Z,36.04
2022-08-11T12:46:37.756Z,36.24
2022-08-11T12:49:36.296Z,36.03
2022-08-11T12:52:12.758Z,36.06
2022-08-11T12:54:59.791Z,36.01
2022-08-11T12:58:05.697Z,36.38
2022-08-11T13:00:52.299Z,36.37
2022-08-11T13:03:39.570Z,36.11
2022-08-11T13:06:08.605Z,36.04
2022-08-11T13:08:39.951Z,36.05
2022-08-11T13:11:55.610Z,36.08
2022-08-11T13:14:16.726Z,36.16
2022-08-11T13:17:04.243Z,36.23
2022-08-11T13:19:32.946Z,36.24
2022-08-11T13:22:02.337Z,36.30
2022-08-11T13:24:34.007Z,36.43
2022-08-11T13:27:02.968Z,36.37
2022-08-11T13:29:30.820Z,36.34
2022-08-11T13:32:02.058Z,36.41
2022-08-11T13:34:32.101Z,36.65
2022-08-11T13:37:04.955Z,36.56
2022-08-11T13:39:34.478Z,36.58
2022-08-11T13:42:04.391Z,36.53
2022-08-11T13:44:37.795Z,36.41
2022-08-11T13:47:08.625Z,36.36
2022-08-11T13:49:40.417Z,36.41
2022-08-11T13:52:15.722Z,36.41
2022-08-11T13:54:47.958Z,36.38
2022-08-11T13:58:06.358Z,36.44
2022-08-11T14:00:25.132Z,36.63
2022-08-11T14:02:57.754Z,36.47
2022-08-11T14:05:36.711Z,36.38
2022-08-11T14:08:31.816Z,36.45
2022-08-11T14:12:21.266Z,36.48
2022-08-11T14:14:21.308Z,36.45
2022-08-11T14:16:52.212Z,36.64
2022-08-11T14:19:25.787Z,36.55
2022-08-11T14:22:08.142Z,36.62
2022-08-11T14:24:42.787Z,36.54
2022-08-11T14:27:39.118Z,36.66
2022-08-11T14:30:00.988Z,36.71
2022-08-11T14:32:28.788Z,36.75
2022-08-11T14:34:56.768Z,36.82
2022-08-11T14:37:27.963Z,36.68
2022-08-11T14:40:03.892Z,36.52
2022-08-11T14:42:50.015Z,36.38
2022-08-11T14:45:54.273Z,36.40
2022-08-11T14:48:24.446Z,36.54
2022-08-11T14:50:52.865Z,36.39
2022-08-11T14:53:23.389Z,36.34
2022-08-11T14:56:10.038Z,36.32
2022-08-11T14:58:38.537Z,36.46
2022-08-11T15:01:26.000Z,36.36
2022-08-11T15:04:27.311Z,36.58
2022-08-11T15:06:40.840Z,36.37
2022-08-11T15:09:09.283Z,36.25
2022-08-11T15:11:59.909Z,36.33
2022-08-11T15:14:45.741Z,36.22
2022-08-11T15:17:14.310Z,36.18
2022-08-11T15:20:03.154Z,36.17
2022-08-11T15:22:49.064Z,36.33
2022-08-11T15:25:16.003Z,36.37
2022-08-11T15:28:07.063Z,36.25
2022-08-11T15:31:03.587Z,36.14
2022-08-11T15:33:51.527Z,36.08
2022-08-11T15:36:38.539Z,35.91
2022-08-11T15:39:19.352Z,36.04
2022-08-11T15:42:51.260Z,35.87
2022-08-11T15:45:43.018Z,35.82
2022-08-11T15:48:16.596Z,35.76
2022-08-11T15:50:57.645Z,35.75
2022-08-11T15:53:38.719Z,35.87
2022-08-11T15:56:08.372Z,35.97
2022-08-11T15:59:10.702Z,35.90
2022-08-11T16:02:10.260Z,35.68
2022-08-11T16:04:39.846Z,35.74
2022-08-11T16:07:14.579Z,35.66
2022-08-11T16:09:57.006Z,35.35
2022-08-11T16:12:31.518Z,35.42
2022-08-11T16:15:23.282Z,35.27
2022-08-11T16:17:59.393Z,35.23
2022-08-11T16:20:29.033Z,35.11
2022-08-11T16:23:02.935Z,35.09
2022-08-11T16:27:05.717Z,34.97
2022-08-11T16:28:24.444Z,34.79
2022-08-11T16:30:53.865Z,34.66
2022-08-11T16:33:50.801Z,34.69
2022-08-11T16:36:34.583Z,34.69
2022-08-11T16:39:04.768Z,34.55
2022-08-11T16:41:54.698Z,34.51
2022-08-11T16:44:43.638Z,34.52
2022-08-11T16:48:03.050Z,34.53
2022-08-11T16:50:09.725Z,34.70
2022-08-11T16:52:37.187Z,34.40
2022-08-11T16:55:05.733Z,34.24
2022-08-11T16:57:53.333Z,34.19
2022-08-11T17:00:20.120Z,34.19
2022-08-11T17:03:10.624Z,34.20
2022-08-11T17:06:10.246Z,34.25
2022-08-11T17:09:07.063Z,34.17
2022-08-11T17:12:16.948Z,33.88
2022-08-11T17:14:51.813Z,33.73
2022-08-11T17:17:36.611Z,33.73
2022-08-11T17:20:41.350Z,33.71
2022-08-11T17:23:17.634Z,33.72
2022-08-11T17:25:59.918Z,33.67
2022-08-11T17:28:33.062Z,33.67
2022-08-11T17:31:21.731Z,33.67
2022-08-11T17:34:10.149Z,33.63
2022-08-11T17:36:43.161Z,33.58
2022-08-11T17:39:15.230Z,33.54
2022-08-11T17:42:02.640Z,33.50
2022-08-11T17:44:51.610Z,33.49
2022-08-11T17:47:38.113Z,33.36
2022-08-11T17:50:16.403Z,33.35
2022-08-11T17:53:05.400Z,33.30
2022-08-11T17:55:54.187Z,33.25
2022-08-11T17:58:41.656Z,33.42
2022-08-11T18:01:11.861Z,33.16
2022-08-11T18:03:57.587Z,33.16
2022-08-11T18:06:33.718Z,33.09
2022-08-11T18:09:24.026Z,33.03
2022-08-11T18:12:13.407Z,33.03
2022-08-11T18:15:05.830Z,32.88
2022-08-11T18:17:52.977Z,32.90
2022-08-11T18:20:39.256Z,32.83
2022-08-11T18:23:41.799Z,32.73
2022-08-11T18:26:38.946Z,32.76
2022-08-11T18:29:26.376Z,32.69
2022-08-11T18:32:21.772Z,32.65
2022-08-11T18:35:12.258Z,32.55
2022-08-11T18:38:07.879Z,32.39
2022-08-11T18:40:56.360Z,32.41
2022-08-11T18:43:46.152Z,32.40
2022-08-11T18:46:35.054Z,32.35
2022-08-11T18:50:01.953Z,32.23
2022-08-11T18:52:41.006Z,32.26
2022-08-11T18:55:36.294Z,32.15
2022-08-11T18:58:27.426Z,32.15
2022-08-11T19:01:18.854Z,32.01
2022-08-11T19:04:11.149Z,32.01
2022-08-11T19:07:00.038Z,31.93
2022-08-11T19:09:48.342Z,31.92
2022-08-11T19:12:35.951Z,31.85
2022-08-11T19:15:23.623Z,31.86
2022-08-11T19:18:11.706Z,31.79
2022-08-11T19:21:01.044Z,31.80
2022-08-11T19:24:00.344Z,31.72
2022-08-11T19:26:49.752Z,31.76
2022-08-11T19:30:04.742Z,31.68
2022-08-11T19:32:49.776Z,31.51
2022-08-11T19:35:36.144Z,31.58
2022-08-11T19:38:22.638Z,31.55
2022-08-11T19:41:10.284Z,31.48
2022-08-11T19:43:58.981Z,31.43
2022-08-11T19:46:45.818Z,31.45
2022-08-11T19:49:32.968Z,31.40
2022-08-11T19:52:19.013Z,31.30
2022-08-11T19:55:05.949Z,31.20
2022-08-11T19:57:54.302Z,31.28
2022-08-11T20:00:41.668Z,31.10
2022-08-11T20:03:33.631Z,31.13
2022-08-11T20:06:25.738Z,31.21
2022-08-11T20:09:18.929Z,31.30
2022-08-11T20:12:10.567Z,31.13
2022-08-11T20:15:13.627Z,31.06
2022-08-11T20:18:01.834Z,31.13
2022-08-11T20:20:49.250Z,30.93
2022-08-11T20:23:36.342Z,30.91
2022-08-11T20:26:31.142Z,30.95
2022-08-11T20:29:21.262Z,30.91
2022-08-11T20:32:10.208Z,30.92
2022-08-11T20:34:58.761Z,30.78
2022-08-11T20:37:50.820Z,30.72
2022-08-11T20:40:43.212Z,30.60
2022-08-11T20:44:07.442Z,30.63
2022-08-11T20:46:41.821Z,30.55
2022-08-11T20:49:40.930Z,30.55
2022-08-11T20:52:37.335Z,30.50
2022-08-11T20:59:11.846Z,30.45
2022-08-11T21:01:47.220Z,30.42
2022-08-11T21:04:55.071Z,30.44
2022-08-11T21:07:56.674Z,30.41
2022-08-11T21:10:51.632Z,30.32
2022-08-11T21:13:51.473Z,30.37
2022-08-11T21:16:55.385Z,30.43
2022-08-11T21:20:06.571Z,30.40
2022-08-11T21:23:05.966Z,30.34
2022-08-11T21:26:14.435Z,30.31
2022-08-11T21:29:04.153Z,30.15
2022-08-11T21:31:52.148Z,30.22
2022-08-11T21:34:41.245Z,30.13
2022-08-11T21:37:28.673Z,30.17
2022-08-11T21:40:18.576Z,30.09
2022-08-11T21:43:07.035Z,29.86
2022-08-11T21:45:56.520Z,29.94
2022-08-11T21:48:45.680Z,29.82
2022-08-11T21:51:31.133Z,29.86
2022-08-11T21:54:18.547Z,29.83
2022-08-11T21:57:06.460Z,29.95
2022-08-11T22:00:09.436Z,29.77
2022-08-11T22:02:57.393Z,29.62
2022-08-11T22:05:44.707Z,29.67
2022-08-11T22:08:31.972Z,29.64
2022-08-11T22:11:32.048Z,29.69
2022-08-11T22:14:23.029Z,29.69
2022-08-11T22:17:09.008Z,29.59
2022-08-11T22:20:00.714Z,29.58
2022-08-11T22:22:53.006Z,29.45
2022-08-11T22:25:54.267Z,29.39
2022-08-11T22:28:40.492Z,29.27
2022-08-11T22:31:29.240Z,29.23
2022-08-11T22:34:15.292Z,29.29
2022-08-11T22:37:03.215Z,29.29
2022-08-11T22:39:59.918Z,29.28
2022-08-11T22:42:47.900Z,29.30
2022-08-11T22:45:33.147Z,29.21
2022-08-11T22:48:23.155Z,29.25
2022-08-11T22:51:10.493Z,29.17
2022-08-11T22:53:59.234Z,29.11
2022-08-11T22:56:51.008Z,29.17
2022-08-11T22:59:38.455Z,29.09
2022-08-11T23:02:25.839Z,29.05
2022-08-11T23:05:13.167Z,29.01
2022-08-11T23:08:00.369Z,29.04
2022-08-11T23:10:46.828Z,28.99
2022-08-11T23:13:34.702Z,28.92
2022-08-11T23:16:20.908Z,28.79
2022-08-11T23:19:08.530Z,28.91
2022-08-11T23:21:54.703Z,28.86
2022-08-11T23:24:42.880Z,28.78
2022-08-11T23:27:28.949Z,28.81
2022-08-11T23:30:19.229Z,28.79
2022-08-11T23:33:09.449Z,28.75
2022-08-11T23:36:02.261Z,28.69
2022-08-11T23:38:52.153Z,28.62
2022-08-11T23:41:38.104Z,28.56
2022-08-11T23:44:26.448Z,28.65
2022-08-11T23:47:18.568Z,28.32
2022-08-11T23:50:06.530Z,28.19
2022-08-11T23:52:53.845Z,28.06
2022-08-11T23:55:40.323Z,27.97
2022-08-11T23:58:27.808Z,27.85
